Iowa Falls, Iowa
Current Conditions -  °F | °C
As of 10:15 AM on Wednesday 28 Jan 2015 (Local Time) from KIFA Reporting Station
Haze Haze  
Wind Chill: 20°   Ceiling: 600
Heat Index: 31°   Visibility: 5mi
Dew Point: 30°   Wind: 18mph
Humidity: 96%   Direction: 130°SE
Pressure: 29.94"   Gusts: 22mph
Location:  42.52°N, 93.26°W
Report Text: KIFA 281615Z AUTO 13016G19KT 5SM BR OVC006 00/M01 A2994 RMK AO2 T10041010
Loading
Personal Weather Stations






























Interactive Weather Map New forecast layout! Learn more

10-Day Weather Forecast

Advertisements
Track Severe Weather on mobile